ADDS METAR Data INFO
IDs: Format: Raw Decoded Include TAF

Data at: 1612 UTC 25 Apr 2018

KTYR 251553Z 31004KT 10SM OVC070 22/13 A3007 RMK AO2 SLP177 T02170128
KTYR 251453Z 24006KT 10SM BKN060 22/12 A3006 RMK AO2 SLP174 T02170117 53004
KTYR 251353Z 22005KT 10SM OVC070 19/14 A3005 RMK AO2 SLP171 T01890144
KTYR 251253Z 00000KT 10SM BKN080 17/14 A3005 RMK AO2 SLP171 T01670139
KTYR 251153Z 00000KT 10SM OVC080 16/13 A3005 RMK AO2 SLP170 T01560133 10156 20139 53006
KTYR 251053Z AUTO 00000KT 10SM BKN085 14/13 A3004 RMK AO2 SLP168 T01440128
KTYR 250953Z AUTO 32003KT 10SM CLR 14/13 A3003 RMK AO2 SLP164 T01440128
KTYR 250853Z AUTO 14005KT 10SM CLR 15/12 A3003 RMK AO2 SLP164 T01500122 57015
KTYR 250753Z AUTO 23003KT 10SM BKN095 15/12 A3006 RMK AO2 SLP172 T01500122
KTYR 250653Z AUTO 14003KT 10SM CLR 14/12 A3005 RMK AO2 SLP171 T01390122
KTYR 250553Z AUTO 00000KT 10SM CLR 15/12 A3008 RMK AO2 SLP179 T01500122 10261 20150 402780100 51013
KTYR 250453Z AUTO 00000KT 10SM CLR 16/11 A3007 RMK AO2 SLP175 T01610111
KTYR 250353Z AUTO 00000KT 10SM CLR 18/10 A3006 RMK AO2 SLP173 T01780100
KTYR 250253Z AUTO 00000KT 10SM CLR 19/11 A3004 RMK AO2 SLP166 T01940106 53009
KTYR 250153Z 00000KT 10SM CLR 21/10 A3002 RMK AO2 SLP161 T02060100
KTYR 250053Z 01005KT 10SM CLR 23/08 A3001 RMK AO2 SLP157 T02280083
KTYR 242353Z 35005KT 10SM CLR 26/07 A3001 RMK AO2 SLP158 T02610067 10278 20250 55006
KTYR 242253Z 01003KT 10SM CLR 27/06 A3001 RMK AO2 SLP156 T02670061
KTYR 242153Z 02007KT 10SM CLR 28/07 A3001 RMK AO2 SLP157 T02780067
KTYR 242053Z 33008KT 10SM CLR 27/06 A3003 RMK AO2 SLP165 T02720056 56016
KTYR 241953Z 35009KT 10SM CLR 27/05 A3004 RMK AO2 SLP168 T02670050
KTYR 241853Z 30007KT 10SM CLR 26/06 A3006 RMK AO2 SLP175 T02610061
KTYR 241753Z 01009KT 10SM CLR 26/06 A3008 RMK AO2 SLP180 T02610061 10261 20122 58011
KTYR 241653Z AUTO 33005KT 10SM CLR 24/09 A3011 RMK AO2 SLP190 T02390089
KTYR 241553Z 34007KT 10SM CLR 23/12 A3011 RMK AO2 SLP192 T02280117
KTYR 241453Z 30008KT 10SM CLR 21/13 A3011 RMK AO2 SLP192 T02060133 51017
KTYR 241353Z 31006KT 10SM CLR 17/13 A3010 RMK AO2 SLP188 T01670128
KTYR 241253Z 29003KT 10SM CLR 14/12 A3008 RMK AO2 SLP183 T01440122
KTYR 241153Z 25006KT 10SM CLR 12/11 A3006 RMK AO2 SLP176 T01220111 10133 20100 53015
KTYR 241053Z AUTO 00000KT 10SM CLR 11/09 A3003 RMK AO2 SLP166 T01060094
KTYR 240953Z AUTO 00000KT 10SM CLR 11/09 A3001 RMK AO2 SLP160 T01060094
KTYR 240853Z AUTO 00000KT 10SM CLR 12/11 A3002 RMK AO2 SLP160 T01170106 56007
KTYR 240753Z AUTO 00000KT 10SM CLR 12/11 A3002 RMK AO2 SLP161 T01220111
KTYR 240653Z AUTO 00000KT 10SM CLR 12/11 A3003 RMK AO2 SLP164 T01220111
KTYR 240553Z AUTO 00000KT 10SM CLR 13/12 A3004 RMK AO2 SLP168 T01330122 10200 20128 402170100 51004
KTYR 240453Z AUTO 22004KT 10SM CLR 14/12 A3003 RMK AO2 SLP167 T01390117